sensor_id;sensor_type;location;lat;lon;timestamp;P1;durP1;ratioP1;P2;durP2;ratioP2
16579;SDS011;8402;51.466;6.806;2023-04-24T00:00:33;4.53;;;0.90;;
16579;SDS011;8402;51.466;6.806;2023-04-24T00:03:03;2.17;;;1.00;;
16579;SDS011;8402;51.466;6.806;2023-04-24T00:05:34;2.17;;;0.67;;
16579;SDS011;8402;51.466;6.806;2023-04-24T00:08:04;1.07;;;0.60;;
16579;SDS011;8402;51.466;6.806;2023-04-24T00:10:36;1.03;;;0.60;;
16579;SDS011;8402;51.466;6.806;2023-04-24T00:13:06;0.90;;;0.70;;
16579;SDS011;8402;51.466;6.806;2023-04-24T00:15:37;1.43;;;0.77;;
16579;SDS011;8402;51.466;6.806;2023-04-24T00:18:06;1.20;;;0.87;;
16579;SDS011;8402;51.466;6.806;2023-04-24T00:20:36;3.73;;;1.43;;
16579;SDS011;8402;51.466;6.806;2023-04-24T00:23:06;2.67;;;1.47;;
16579;SDS011;8402;51.466;6.806;2023-04-24T00:25:39;3.97;;;2.10;;
16579;SDS011;8402;51.466;6.806;2023-04-24T00:28:09;5.77;;;1.70;;
16579;SDS011;8402;51.466;6.806;2023-04-24T00:30:39;1.97;;;1.33;;
16579;SDS011;8402;51.466;6.806;2023-04-24T00:33:09;1.60;;;1.40;;
16579;SDS011;8402;51.466;6.806;2023-04-24T00:35:39;1.83;;;1.13;;
16579;SDS011;8402;51.466;6.806;2023-04-24T00:38:09;3.30;;;1.97;;
16579;SDS011;8402;51.466;6.806;2023-04-24T00:40:42;2.33;;;1.53;;
16579;SDS011;8402;51.466;6.806;2023-04-24T00:43:12;3.57;;;1.77;;
16579;SDS011;8402;51.466;6.806;2023-04-24T00:45:42;2.27;;;1.37;;
16579;SDS011;8402;51.466;6.806;2023-04-24T00:48:12;3.63;;;2.00;;
16579;SDS011;8402;51.466;6.806;2023-04-24T00:50:43;5.30;;;2.27;;
16579;SDS011;8402;51.466;6.806;2023-04-24T00:53:14;7.17;;;2.90;;
16579;SDS011;8402;51.466;6.806;2023-04-24T00:55:47;6.33;;;3.37;;
16579;SDS011;8402;51.466;6.806;2023-04-24T00:58:17;9.97;;;4.00;;
16579;SDS011;8402;51.466;6.806;2023-04-24T01:00:47;7.63;;;3.70;;
16579;SDS011;8402;51.466;6.806;2023-04-24T01:03:19;5.90;;;3.10;;
16579;SDS011;8402;51.466;6.806;2023-04-24T01:05:50;4.87;;;2.77;;
16579;SDS011;8402;51.466;6.806;2023-04-24T01:08:21;5.53;;;2.60;;
16579;SDS011;8402;51.466;6.806;2023-04-24T01:10:56;4.97;;;2.60;;
16579;SDS011;8402;51.466;6.806;2023-04-24T01:13:27;4.73;;;2.70;;
16579;SDS011;8402;51.466;6.806;2023-04-24T01:15:57;7.80;;;3.40;;
16579;SDS011;8402;51.466;6.806;2023-04-24T01:18:27;5.50;;;3.40;;
16579;SDS011;8402;51.466;6.806;2023-04-24T01:20:58;9.63;;;3.40;;
16579;SDS011;8402;51.466;6.806;2023-04-24T01:23:31;5.80;;;3.23;;
16579;SDS011;8402;51.466;6.806;2023-04-24T01:26:01;6.67;;;3.50;;
16579;SDS011;8402;51.466;6.806;2023-04-24T01:28:31;7.10;;;3.77;;
16579;SDS011;8402;51.466;6.806;2023-04-24T01:31:02;8.27;;;3.43;;
16579;SDS011;8402;51.466;6.806;2023-04-24T01:33:32;6.33;;;3.07;;
16579;SDS011;8402;51.466;6.806;2023-04-24T01:36:02;6.27;;;3.10;;
16579;SDS011;8402;51.466;6.806;2023-04-24T01:38:35;7.40;;;3.40;;
16579;SDS011;8402;51.466;6.806;2023-04-24T01:41:05;6.47;;;2.90;;
16579;SDS011;8402;51.466;6.806;2023-04-24T01:43:35;7.87;;;3.80;;
16579;SDS011;8402;51.466;6.806;2023-04-24T01:46:05;7.13;;;3.67;;
16579;SDS011;8402;51.466;6.806;2023-04-24T01:48:35;8.13;;;3.70;;
16579;SDS011;8402;51.466;6.806;2023-04-24T01:51:05;8.80;;;3.93;;
16579;SDS011;8402;51.466;6.806;2023-04-24T01:53:38;5.10;;;3.50;;
16579;SDS011;8402;51.466;6.806;2023-04-24T01:56:08;8.37;;;4.20;;
16579;SDS011;8402;51.466;6.806;2023-04-24T01:58:39;4.80;;;3.27;;
16579;SDS011;8402;51.466;6.806;2023-04-24T02:01:09;7.83;;;3.43;;
16579;SDS011;8402;51.466;6.806;2023-04-24T02:03:44;8.13;;;3.73;;
16579;SDS011;8402;51.466;6.806;2023-04-24T02:06:14;7.43;;;3.60;;
16579;SDS011;8402;51.466;6.806;2023-04-24T02:08:47;6.83;;;3.57;;
16579;SDS011;8402;51.466;6.806;2023-04-24T02:11:17;9.07;;;4.20;;
16579;SDS011;8402;51.466;6.806;2023-04-24T02:13:47;7.33;;;3.80;;
16579;SDS011;8402;51.466;6.806;2023-04-24T02:16:18;12.27;;;4.70;;
16579;SDS011;8402;51.466;6.806;2023-04-24T02:18:48;11.50;;;4.67;;
16579;SDS011;8402;51.466;6.806;2023-04-24T02:21:18;9.17;;;4.90;;
16579;SDS011;8402;51.466;6.806;2023-04-24T02:23:50;8.03;;;4.87;;
16579;SDS011;8402;51.466;6.806;2023-04-24T02:26:20;9.37;;;5.00;;
16579;SDS011;8402;51.466;6.806;2023-04-24T02:28:50;10.30;;;5.30;;
16579;SDS011;8402;51.466;6.806;2023-04-24T02:31:20;11.07;;;5.00;;
16579;SDS011;8402;51.466;6.806;2023-04-24T02:33:50;11.47;;;5.73;;
16579;SDS011;8402;51.466;6.806;2023-04-24T02:36:20;11.67;;;6.37;;
16579;SDS011;8402;51.466;6.806;2023-04-24T02:38:53;9.73;;;6.27;;
16579;SDS011;8402;51.466;6.806;2023-04-24T02:41:23;11.27;;;5.97;;
16579;SDS011;8402;51.466;6.806;2023-04-24T02:43:58;13.30;;;6.37;;
16579;SDS011;8402;51.466;6.806;2023-04-24T02:46:28;10.77;;;6.37;;
16579;SDS011;8402;51.466;6.806;2023-04-24T02:48:58;16.53;;;6.40;;
16579;SDS011;8402;51.466;6.806;2023-04-24T02:51:29;12.50;;;6.80;;
16579;SDS011;8402;51.466;6.806;2023-04-24T02:54:01;11.53;;;6.57;;
16579;SDS011;8402;51.466;6.806;2023-04-24T02:56:32;12.40;;;6.63;;
16579;SDS011;8402;51.466;6.806;2023-04-24T02:59:02;15.70;;;6.80;;
16579;SDS011;8402;51.466;6.806;2023-04-24T03:01:32;11.33;;;6.83;;
16579;SDS011;8402;51.466;6.806;2023-04-24T03:04:02;17.63;;;6.67;;
16579;SDS011;8402;51.466;6.806;2023-04-24T03:06:32;16.00;;;6.70;;
16579;SDS011;8402;51.466;6.806;2023-04-24T03:09:05;17.20;;;7.43;;
16579;SDS011;8402;51.466;6.806;2023-04-24T03:11:35;16.30;;;7.50;;
16579;SDS011;8402;51.466;6.806;2023-04-24T03:14:05;15.33;;;7.43;;
16579;SDS011;8402;51.466;6.806;2023-04-24T03:16:34;13.03;;;6.03;;
16579;SDS011;8402;51.466;6.806;2023-04-24T03:19:04;15.93;;;7.20;;
16579;SDS011;8402;51.466;6.806;2023-04-24T03:21:34;15.13;;;8.20;;
16579;SDS011;8402;51.466;6.806;2023-04-24T03:24:10;16.17;;;7.47;;
16579;SDS011;8402;51.466;6.806;2023-04-24T03:26:40;12.63;;;6.83;;
16579;SDS011;8402;51.466;6.806;2023-04-24T03:29:10;17.53;;;8.57;;
16579;SDS011;8402;51.466;6.806;2023-04-24T03:31:40;12.77;;;8.00;;
16579;SDS011;8402;51.466;6.806;2023-04-24T03:34:10;15.20;;;8.10;;
16579;SDS011;8402;51.466;6.806;2023-04-24T03:36:40;17.67;;;8.40;;
16579;SDS011;8402;51.466;6.806;2023-04-24T03:39:13;24.93;;;8.60;;
16579;SDS011;8402;51.466;6.806;2023-04-24T03:41:43;17.73;;;8.47;;
16579;SDS011;8402;51.466;6.806;2023-04-24T03:44:13;20.27;;;8.17;;
16579;SDS011;8402;51.466;6.806;2023-04-24T03:46:43;18.83;;;8.20;;
16579;SDS011;8402;51.466;6.806;2023-04-24T03:49:13;15.17;;;8.00;;
16579;SDS011;8402;51.466;6.806;2023-04-24T03:51:43;15.67;;;8.23;;
16579;SDS011;8402;51.466;6.806;2023-04-24T03:54:16;15.50;;;7.97;;
16579;SDS011;8402;51.466;6.806;2023-04-24T03:56:46;16.03;;;7.77;;
16579;SDS011;8402;51.466;6.806;2023-04-24T03:59:16;16.97;;;7.30;;
16579;SDS011;8402;51.466;6.806;2023-04-24T04:01:46;15.47;;;7.33;;
16579;SDS011;8402;51.466;6.806;2023-04-24T04:04:15;21.27;;;8.07;;
16579;SDS011;8402;51.466;6.806;2023-04-24T04:06:46;16.57;;;7.70;;
16579;SDS011;8402;51.466;6.806;2023-04-24T04:09:19;14.30;;;7.43;;
16579;SDS011;8402;51.466;6.806;2023-04-24T04:11:51;14.67;;;7.63;;
16579;SDS011;8402;51.466;6.806;2023-04-24T04:14:21;15.03;;;8.40;;
16579;SDS011;8402;51.466;6.806;2023-04-24T04:16:51;19.40;;;8.37;;
16579;SDS011;8402;51.466;6.806;2023-04-24T04:19:21;13.13;;;5.47;;
16579;SDS011;8402;51.466;6.806;2023-04-24T04:21:51;18.40;;;8.07;;
16579;SDS011;8402;51.466;6.806;2023-04-24T04:24:25;15.57;;;8.57;;
16579;SDS011;8402;51.466;6.806;2023-04-24T04:26:55;18.50;;;8.40;;
16579;SDS011;8402;51.466;6.806;2023-04-24T04:29:25;16.83;;;8.80;;
16579;SDS011;8402;51.466;6.806;2023-04-24T04:31:55;18.00;;;8.40;;
16579;SDS011;8402;51.466;6.806;2023-04-24T04:34:26;19.07;;;9.17;;
16579;SDS011;8402;51.466;6.806;2023-04-24T04:36:56;20.10;;;7.93;;
16579;SDS011;8402;51.466;6.806;2023-04-24T04:39:29;16.23;;;7.53;;
16579;SDS011;8402;51.466;6.806;2023-04-24T04:41:59;15.80;;;8.37;;
16579;SDS011;8402;51.466;6.806;2023-04-24T04:44:29;15.03;;;7.13;;
16579;SDS011;8402;51.466;6.806;2023-04-24T04:47:02;12.87;;;7.13;;
16579;SDS011;8402;51.466;6.806;2023-04-24T04:49:33;13.77;;;7.87;;
16579;SDS011;8402;51.466;6.806;2023-04-24T04:52:03;19.00;;;8.10;;
16579;SDS011;8402;51.466;6.806;2023-04-24T04:54:39;14.83;;;7.33;;
16579;SDS011;8402;51.466;6.806;2023-04-24T04:57:09;16.00;;;8.00;;
16579;SDS011;8402;51.466;6.806;2023-04-24T04:59:39;17.40;;;6.90;;
16579;SDS011;8402;51.466;6.806;2023-04-24T05:02:10;11.00;;;5.77;;
16579;SDS011;8402;51.466;6.806;2023-04-24T05:04:40;16.00;;;6.53;;
16579;SDS011;8402;51.466;6.806;2023-04-24T05:07:11;15.23;;;7.27;;
16579;SDS011;8402;51.466;6.806;2023-04-24T05:09:45;11.10;;;6.27;;
16579;SDS011;8402;51.466;6.806;2023-04-24T05:12:15;11.40;;;6.83;;
16579;SDS011;8402;51.466;6.806;2023-04-24T05:14:45;12.40;;;6.53;;
16579;SDS011;8402;51.466;6.806;2023-04-24T05:17:15;12.40;;;6.70;;
16579;SDS011;8402;51.466;6.806;2023-04-24T05:19:45;10.43;;;6.00;;
16579;SDS011;8402;51.466;6.806;2023-04-24T05:22:15;9.33;;;5.63;;
16579;SDS011;8402;51.466;6.806;2023-04-24T05:24:50;10.83;;;6.00;;
16579;SDS011;8402;51.466;6.806;2023-04-24T05:27:20;14.43;;;6.20;;
16579;SDS011;8402;51.466;6.806;2023-04-24T05:29:50;13.53;;;5.80;;
16579;SDS011;8402;51.466;6.806;2023-04-24T05:32:20;9.20;;;6.17;;
16579;SDS011;8402;51.466;6.806;2023-04-24T05:34:50;9.97;;;6.00;;
16579;SDS011;8402;51.466;6.806;2023-04-24T05:37:20;8.63;;;4.77;;
16579;SDS011;8402;51.466;6.806;2023-04-24T05:39:52;13.17;;;6.40;;
16579;SDS011;8402;51.466;6.806;2023-04-24T05:42:22;13.90;;;6.53;;
16579;SDS011;8402;51.466;6.806;2023-04-24T05:44:52;15.23;;;6.67;;
16579;SDS011;8402;51.466;6.806;2023-04-24T05:47:23;13.83;;;7.40;;
16579;SDS011;8402;51.466;6.806;2023-04-24T05:49:53;15.57;;;7.00;;
16579;SDS011;8402;51.466;6.806;2023-04-24T05:52:23;14.07;;;7.43;;
16579;SDS011;8402;51.466;6.806;2023-04-24T05:54:55;14.20;;;7.47;;
16579;SDS011;8402;51.466;6.806;2023-04-24T05:57:28;12.70;;;6.60;;
16579;SDS011;8402;51.466;6.806;2023-04-24T05:59:58;11.43;;;6.60;;
16579;SDS011;8402;51.466;6.806;2023-04-24T06:02:29;11.53;;;7.10;;
16579;SDS011;8402;51.466;6.806;2023-04-24T06:04:59;13.53;;;7.37;;
16579;SDS011;8402;51.466;6.806;2023-04-24T06:07:29;17.57;;;7.83;;
16579;SDS011;8402;51.466;6.806;2023-04-24T06:10:02;14.57;;;6.87;;
16579;SDS011;8402;51.466;6.806;2023-04-24T06:12:32;10.43;;;6.27;;
16579;SDS011;8402;51.466;6.806;2023-04-24T06:15:03;9.30;;;5.37;;
16579;SDS011;8402;51.466;6.806;2023-04-24T06:17:34;11.70;;;6.23;;
16579;SDS011;8402;51.466;6.806;2023-04-24T06:20:05;15.87;;;6.83;;
16579;SDS011;8402;51.466;6.806;2023-04-24T06:22:37;14.60;;;6.40;;
16579;SDS011;8402;51.466;6.806;2023-04-24T06:25:10;12.13;;;6.67;;
16579;SDS011;8402;51.466;6.806;2023-04-24T06:27:40;12.77;;;6.60;;
16579;SDS011;8402;51.466;6.806;2023-04-24T06:30:10;14.33;;;6.47;;
16579;SDS011;8402;51.466;6.806;2023-04-24T06:32:40;13.50;;;7.13;;
16579;SDS011;8402;51.466;6.806;2023-04-24T06:35:10;12.27;;;6.67;;
16579;SDS011;8402;51.466;6.806;2023-04-24T06:37:41;12.13;;;6.77;;
16579;SDS011;8402;51.466;6.806;2023-04-24T06:40:14;8.57;;;5.00;;
16579;SDS011;8402;51.466;6.806;2023-04-24T06:42:45;16.00;;;6.47;;
16579;SDS011;8402;51.466;6.806;2023-04-24T06:45:15;10.60;;;5.60;;
16579;SDS011;8402;51.466;6.806;2023-04-24T06:47:45;15.40;;;5.83;;
16579;SDS011;8402;51.466;6.806;2023-04-24T06:50:16;7.57;;;3.80;;
16579;SDS011;8402;51.466;6.806;2023-04-24T06:52:46;8.70;;;4.90;;
16579;SDS011;8402;51.466;6.806;2023-04-24T06:55:19;11.40;;;5.70;;
16579;SDS011;8402;51.466;6.806;2023-04-24T06:57:49;12.50;;;6.80;;
16579;SDS011;8402;51.466;6.806;2023-04-24T07:00:19;14.77;;;6.43;;
16579;SDS011;8402;51.466;6.806;2023-04-24T07:02:50;10.07;;;5.03;;
16579;SDS011;8402;51.466;6.806;2023-04-24T07:05:21;9.67;;;4.70;;
16579;SDS011;8402;51.466;6.806;2023-04-24T07:07:51;11.03;;;4.73;;
16579;SDS011;8402;51.466;6.806;2023-04-24T07:10:24;9.50;;;4.00;;
16579;SDS011;8402;51.466;6.806;2023-04-24T07:12:55;14.10;;;4.97;;
16579;SDS011;8402;51.466;6.806;2023-04-24T07:15:25;8.67;;;4.20;;
16579;SDS011;8402;51.466;6.806;2023-04-24T07:17:55;7.93;;;4.37;;
16579;SDS011;8402;51.466;6.806;2023-04-24T07:20:25;10.80;;;3.93;;
16579;SDS011;8402;51.466;6.806;2023-04-24T07:22:55;11.63;;;4.17;;
16579;SDS011;8402;51.466;6.806;2023-04-24T07:25:27;5.37;;;2.63;;
16579;SDS011;8402;51.466;6.806;2023-04-24T07:27:57;6.23;;;1.93;;
16579;SDS011;8402;51.466;6.806;2023-04-24T07:30:27;2.93;;;1.70;;
16579;SDS011;8402;51.466;6.806;2023-04-24T07:32:59;9.00;;;2.40;;
16579;SDS011;8402;51.466;6.806;2023-04-24T07:35:29;4.00;;;1.90;;
16579;SDS011;8402;51.466;6.806;2023-04-24T07:37:59;7.07;;;2.30;;
16579;SDS011;8402;51.466;6.806;2023-04-24T07:40:31;7.93;;;2.40;;
16579;SDS011;8402;51.466;6.806;2023-04-24T07:43:01;9.40;;;1.70;;
16579;SDS011;8402;51.466;6.806;2023-04-24T07:45:31;7.97;;;2.13;;
16579;SDS011;8402;51.466;6.806;2023-04-24T07:48:03;7.67;;;2.93;;
16579;SDS011;8402;51.466;6.806;2023-04-24T07:50:35;6.20;;;2.70;;
16579;SDS011;8402;51.466;6.806;2023-04-24T07:53:05;10.63;;;3.10;;
16579;SDS011;8402;51.466;6.806;2023-04-24T07:55:40;10.40;;;2.80;;
16579;SDS011;8402;51.466;6.806;2023-04-24T07:58:10;5.47;;;2.20;;
16579;SDS011;8402;51.466;6.806;2023-04-24T08:00:39;10.33;;;2.70;;
16579;SDS011;8402;51.466;6.806;2023-04-24T08:03:09;5.57;;;2.10;;
16579;SDS011;8402;51.466;6.806;2023-04-24T08:05:39;8.93;;;2.10;;
16579;SDS011;8402;51.466;6.806;2023-04-24T08:08:10;7.93;;;2.60;;
16579;SDS011;8402;51.466;6.806;2023-04-24T08:10:43;5.93;;;2.17;;
16579;SDS011;8402;51.466;6.806;2023-04-24T08:13:15;10.33;;;2.63;;
16579;SDS011;8402;51.466;6.806;2023-04-24T08:15:46;10.17;;;2.93;;
16579;SDS011;8402;51.466;6.806;2023-04-24T08:18:15;14.17;;;2.93;;
16579;SDS011;8402;51.466;6.806;2023-04-24T08:20:45;9.33;;;2.43;;
16579;SDS011;8402;51.466;6.806;2023-04-24T08:23:15;14.30;;;2.97;;
16579;SDS011;8402;51.466;6.806;2023-04-24T08:25:48;8.27;;;1.93;;
16579;SDS011;8402;51.466;6.806;2023-04-24T08:28:18;4.53;;;1.60;;
16579;SDS011;8402;51.466;6.806;2023-04-24T08:30:48;2.97;;;1.33;;
16579;SDS011;8402;51.466;6.806;2023-04-24T08:33:23;3.97;;;1.90;;
16579;SDS011;8402;51.466;6.806;2023-04-24T08:35:53;3.57;;;1.50;;
16579;SDS011;8402;51.466;6.806;2023-04-24T08:38:23;4.53;;;1.50;;
16579;SDS011;8402;51.466;6.806;2023-04-24T08:40:55;0.80;;;0.50;;
16579;SDS011;8402;51.466;6.806;2023-04-24T08:43:28;1.50;;;1.00;;
16579;SDS011;8402;51.466;6.806;2023-04-24T08:45:58;4.97;;;1.50;;
16579;SDS011;8402;51.466;6.806;2023-04-24T08:48:34;7.43;;;1.70;;
16579;SDS011;8402;51.466;6.806;2023-04-24T08:51:05;5.80;;;1.93;;
16579;SDS011;8402;51.466;6.806;2023-04-24T08:53:40;9.13;;;2.23;;
16579;SDS011;8402;51.466;6.806;2023-04-24T08:56:13;8.73;;;2.53;;
16579;SDS011;8402;51.466;6.806;2023-04-24T08:58:43;1.57;;;0.90;;
16579;SDS011;8402;51.466;6.806;2023-04-24T09:01:13;3.63;;;1.20;;
16579;SDS011;8402;51.466;6.806;2023-04-24T09:03:44;2.00;;;0.97;;
16579;SDS011;8402;51.466;6.806;2023-04-24T09:06:14;1.93;;;0.90;;
16579;SDS011;8402;51.466;6.806;2023-04-24T09:08:46;3.17;;;1.10;;
16579;SDS011;8402;51.466;6.806;2023-04-24T09:11:23;2.20;;;1.40;;
16579;SDS011;8402;51.466;6.806;2023-04-24T09:13:54;4.57;;;2.23;;
16579;SDS011;8402;51.466;6.806;2023-04-24T09:16:25;3.83;;;2.17;;
16579;SDS011;8402;51.466;6.806;2023-04-24T09:18:56;6.23;;;3.47;;
16579;SDS011;8402;51.466;6.806;2023-04-24T09:21:30;5.00;;;3.07;;
16579;SDS011;8402;51.466;6.806;2023-04-24T09:24:02;6.87;;;3.50;;
16579;SDS011;8402;51.466;6.806;2023-04-24T09:26:37;8.33;;;2.53;;
16579;SDS011;8402;51.466;6.806;2023-04-24T09:29:06;7.40;;;3.93;;
16579;SDS011;8402;51.466;6.806;2023-04-24T09:31:37;5.57;;;3.40;;
16579;SDS011;8402;51.466;6.806;2023-04-24T09:34:06;4.80;;;2.80;;
16579;SDS011;8402;51.466;6.806;2023-04-24T09:36:37;4.37;;;2.90;;
16579;SDS011;8402;51.466;6.806;2023-04-24T09:39:09;5.53;;;3.10;;
16579;SDS011;8402;51.466;6.806;2023-04-24T09:41:48;7.77;;;3.73;;
16579;SDS011;8402;51.466;6.806;2023-04-24T09:44:19;5.07;;;3.63;;
16579;SDS011;8402;51.466;6.806;2023-04-24T09:46:52;7.30;;;3.50;;
16579;SDS011;8402;51.466;6.806;2023-04-24T09:49:24;7.17;;;3.03;;
16579;SDS011;8402;51.466;6.806;2023-04-24T09:52:02;9.07;;;4.30;;
16579;SDS011;8402;51.466;6.806;2023-04-24T09:54:32;8.67;;;4.53;;
16579;SDS011;8402;51.466;6.806;2023-04-24T09:57:06;7.20;;;3.10;;
16579;SDS011;8402;51.466;6.806;2023-04-24T09:59:41;6.67;;;3.50;;
16579;SDS011;8402;51.466;6.806;2023-04-24T10:02:16;8.53;;;4.60;;
16579;SDS011;8402;51.466;6.806;2023-04-24T10:04:53;8.47;;;4.17;;
16579;SDS011;8402;51.466;6.806;2023-04-24T10:07:27;7.80;;;4.47;;
16579;SDS011;8402;51.466;6.806;2023-04-24T10:09:57;4.80;;;2.90;;
16579;SDS011;8402;51.466;6.806;2023-04-24T10:12:30;7.60;;;3.60;;
16579;SDS011;8402;51.466;6.806;2023-04-24T10:15:01;9.67;;;3.80;;
16579;SDS011;8402;51.466;6.806;2023-04-24T10:17:33;8.17;;;3.83;;
16579;SDS011;8402;51.466;6.806;2023-04-24T10:20:04;9.27;;;3.90;;
16579;SDS011;8402;51.466;6.806;2023-04-24T10:22:35;10.57;;;4.07;;
16579;SDS011;8402;51.466;6.806;2023-04-24T10:25:06;7.90;;;3.90;;
16579;SDS011;8402;51.466;6.806;2023-04-24T10:27:40;8.47;;;3.73;;
16579;SDS011;8402;51.466;6.806;2023-04-24T10:30:11;7.10;;;3.40;;
16579;SDS011;8402;51.466;6.806;2023-04-24T10:32:42;8.30;;;2.97;;
16579;SDS011;8402;51.466;6.806;2023-04-24T10:35:12;12.67;;;3.63;;
16579;SDS011;8402;51.466;6.806;2023-04-24T10:37:44;9.20;;;3.43;;
16579;SDS011;8402;51.466;6.806;2023-04-24T10:40:16;7.53;;;3.90;;
16579;SDS011;8402;51.466;6.806;2023-04-24T10:42:51;11.00;;;3.30;;
16579;SDS011;8402;51.466;6.806;2023-04-24T10:45:24;5.83;;;3.07;;
16579;SDS011;8402;51.466;6.806;2023-04-24T10:47:58;8.47;;;3.60;;
16579;SDS011;8402;51.466;6.806;2023-04-24T10:50:42;6.60;;;2.70;;
16579;SDS011;8402;51.466;6.806;2023-04-24T10:53:13;10.60;;;3.53;;
16579;SDS011;8402;51.466;6.806;2023-04-24T10:55:46;12.40;;;3.17;;
16579;SDS011;8402;51.466;6.806;2023-04-24T10:58:22;12.83;;;3.90;;
16579;SDS011;8402;51.466;6.806;2023-04-24T11:00:56;6.27;;;2.63;;
16579;SDS011;8402;51.466;6.806;2023-04-24T11:03:27;13.50;;;4.60;;
16579;SDS011;8402;51.466;6.806;2023-04-24T11:06:00;12.67;;;4.53;;
16579;SDS011;8402;51.466;6.806;2023-04-24T11:08:32;14.10;;;4.20;;
16579;SDS011;8402;51.466;6.806;2023-04-24T11:11:10;12.37;;;4.03;;
16579;SDS011;8402;51.466;6.806;2023-04-24T11:16:37;8.50;;;4.20;;
16579;SDS011;8402;51.466;6.806;2023-04-24T11:19:18;11.53;;;4.63;;
16579;SDS011;8402;51.466;6.806;2023-04-24T11:21:54;13.57;;;4.57;;
16579;SDS011;8402;51.466;6.806;2023-04-24T11:24:31;16.23;;;6.00;;
16579;SDS011;8402;51.466;6.806;2023-04-24T11:27:07;11.87;;;4.80;;
16579;SDS011;8402;51.466;6.806;2023-04-24T11:29:47;8.50;;;4.90;;
16579;SDS011;8402;51.466;6.806;2023-04-24T11:32:27;9.57;;;3.67;;
16579;SDS011;8402;51.466;6.806;2023-04-24T11:34:59;10.27;;;3.13;;
16579;SDS011;8402;51.466;6.806;2023-04-24T11:37:33;10.47;;;3.00;;
16579;SDS011;8402;51.466;6.806;2023-04-24T11:40:05;6.53;;;2.30;;
16579;SDS011;8402;51.466;6.806;2023-04-24T11:42:38;6.70;;;2.90;;
16579;SDS011;8402;51.466;6.806;2023-04-24T11:45:15;10.37;;;2.80;;
16579;SDS011;8402;51.466;6.806;2023-04-24T11:47:47;12.97;;;2.70;;
16579;SDS011;8402;51.466;6.806;2023-04-24T11:50:18;8.30;;;2.80;;
16579;SDS011;8402;51.466;6.806;2023-04-24T11:52:51;7.23;;;2.33;;
16579;SDS011;8402;51.466;6.806;2023-04-24T11:55:26;6.73;;;2.63;;
16579;SDS011;8402;51.466;6.806;2023-04-24T11:57:59;8.97;;;2.97;;
16579;SDS011;8402;51.466;6.806;2023-04-24T12:00:32;6.67;;;2.20;;
16579;SDS011;8402;51.466;6.806;2023-04-24T12:03:03;6.43;;;3.10;;
16579;SDS011;8402;51.466;6.806;2023-04-24T12:05:35;6.97;;;2.93;;
16579;SDS011;8402;51.466;6.806;2023-04-24T12:08:06;10.40;;;2.50;;
16579;SDS011;8402;51.466;6.806;2023-04-24T12:10:36;10.40;;;3.13;;
16579;SDS011;8402;51.466;6.806;2023-04-24T12:13:09;7.40;;;2.83;;
16579;SDS011;8402;51.466;6.806;2023-04-24T12:15:42;10.87;;;3.27;;
16579;SDS011;8402;51.466;6.806;2023-04-24T12:18:12;10.30;;;3.50;;
16579;SDS011;8402;51.466;6.806;2023-04-24T12:20:44;8.70;;;3.53;;
16579;SDS011;8402;51.466;6.806;2023-04-24T12:23:13;12.77;;;3.73;;
16579;SDS011;8402;51.466;6.806;2023-04-24T12:25:44;7.83;;;3.50;;
16579;SDS011;8402;51.466;6.806;2023-04-24T12:28:14;7.00;;;2.57;;
16579;SDS011;8402;51.466;6.806;2023-04-24T12:30:47;7.17;;;2.20;;
16579;SDS011;8402;51.466;6.806;2023-04-24T12:33:18;5.87;;;2.03;;
16579;SDS011;8402;51.466;6.806;2023-04-24T12:35:48;6.93;;;2.40;;
16579;SDS011;8402;51.466;6.806;2023-04-24T12:38:22;5.67;;;2.43;;
16579;SDS011;8402;51.466;6.806;2023-04-24T12:41:01;6.43;;;2.90;;
16579;SDS011;8402;51.466;6.806;2023-04-24T12:43:32;5.83;;;2.20;;
16579;SDS011;8402;51.466;6.806;2023-04-24T12:46:06;9.37;;;2.30;;
16579;SDS011;8402;51.466;6.806;2023-04-24T12:48:35;7.03;;;2.27;;
16579;SDS011;8402;51.466;6.806;2023-04-24T12:51:06;8.67;;;2.90;;
16579;SDS011;8402;51.466;6.806;2023-04-24T12:53:35;5.80;;;2.47;;
16579;SDS011;8402;51.466;6.806;2023-04-24T12:56:06;9.63;;;2.57;;
16579;SDS011;8402;51.466;6.806;2023-04-24T12:58:36;5.43;;;2.47;;
16579;SDS011;8402;51.466;6.806;2023-04-24T13:01:09;3.33;;;2.17;;
16579;SDS011;8402;51.466;6.806;2023-04-24T13:03:39;5.73;;;2.33;;
16579;SDS011;8402;51.466;6.806;2023-04-24T13:06:10;3.63;;;1.80;;
16579;SDS011;8402;51.466;6.806;2023-04-24T13:08:40;6.03;;;1.70;;
16579;SDS011;8402;51.466;6.806;2023-04-24T13:11:10;5.03;;;1.70;;
16579;SDS011;8402;51.466;6.806;2023-04-24T13:13:40;2.10;;;1.20;;
16579;SDS011;8402;51.466;6.806;2023-04-24T13:16:13;4.33;;;1.73;;
16579;SDS011;8402;51.466;6.806;2023-04-24T13:18:43;4.33;;;1.30;;
16579;SDS011;8402;51.466;6.806;2023-04-24T13:21:13;3.87;;;1.53;;
16579;SDS011;8402;51.466;6.806;2023-04-24T13:23:43;4.83;;;1.13;;
16579;SDS011;8402;51.466;6.806;2023-04-24T13:26:13;3.53;;;1.13;;
16579;SDS011;8402;51.466;6.806;2023-04-24T13:28:43;2.00;;;1.00;;
16579;SDS011;8402;51.466;6.806;2023-04-24T13:31:16;4.23;;;1.27;;
16579;SDS011;8402;51.466;6.806;2023-04-24T13:33:46;3.67;;;1.70;;
16579;SDS011;8402;51.466;6.806;2023-04-24T13:36:16;5.10;;;1.60;;
16579;SDS011;8402;51.466;6.806;2023-04-24T13:38:46;12.33;;;1.97;;
16579;SDS011;8402;51.466;6.806;2023-04-24T13:41:16;8.23;;;1.90;;
16579;SDS011;8402;51.466;6.806;2023-04-24T13:43:46;6.10;;;1.53;;
16579;SDS011;8402;51.466;6.806;2023-04-24T13:46:19;4.43;;;1.40;;
16579;SDS011;8402;51.466;6.806;2023-04-24T13:48:49;3.43;;;1.40;;
16579;SDS011;8402;51.466;6.806;2023-04-24T13:51:19;4.13;;;1.30;;
16579;SDS011;8402;51.466;6.806;2023-04-24T13:53:49;3.27;;;1.17;;
16579;SDS011;8402;51.466;6.806;2023-04-24T13:56:19;4.70;;;1.20;;
16579;SDS011;8402;51.466;6.806;2023-04-24T13:58:49;5.77;;;1.30;;
16579;SDS011;8402;51.466;6.806;2023-04-24T14:01:23;2.87;;;1.40;;
16579;SDS011;8402;51.466;6.806;2023-04-24T14:03:55;5.33;;;1.30;;
16579;SDS011;8402;51.466;6.806;2023-04-24T14:06:26;2.50;;;1.13;;
16579;SDS011;8402;51.466;6.806;2023-04-24T14:08:56;4.17;;;1.17;;
16579;SDS011;8402;51.466;6.806;2023-04-24T14:11:27;6.20;;;1.50;;
16579;SDS011;8402;51.466;6.806;2023-04-24T14:13:57;4.77;;;1.30;;
16579;SDS011;8402;51.466;6.806;2023-04-24T14:16:30;6.30;;;1.30;;
16579;SDS011;8402;51.466;6.806;2023-04-24T14:19:00;3.17;;;1.47;;
16579;SDS011;8402;51.466;6.806;2023-04-24T14:21:31;3.60;;;1.40;;
16579;SDS011;8402;51.466;6.806;2023-04-24T14:24:02;5.27;;;1.90;;
16579;SDS011;8402;51.466;6.806;2023-04-24T14:26:32;5.60;;;1.67;;
16579;SDS011;8402;51.466;6.806;2023-04-24T14:29:02;1.60;;;1.03;;
16579;SDS011;8402;51.466;6.806;2023-04-24T14:31:42;3.40;;;1.20;;
16579;SDS011;8402;51.466;6.806;2023-04-24T14:34:13;3.47;;;1.23;;
16579;SDS011;8402;51.466;6.806;2023-04-24T14:36:43;4.33;;;1.40;;
16579;SDS011;8402;51.466;6.806;2023-04-24T14:39:13;3.80;;;1.87;;
16579;SDS011;8402;51.466;6.806;2023-04-24T14:41:43;2.17;;;1.43;;
16579;SDS011;8402;51.466;6.806;2023-04-24T14:44:14;3.67;;;1.80;;
16579;SDS011;8402;51.466;6.806;2023-04-24T14:46:46;9.10;;;2.10;;
16579;SDS011;8402;51.466;6.806;2023-04-24T14:49:17;8.50;;;1.80;;
16579;SDS011;8402;51.466;6.806;2023-04-24T14:51:47;4.73;;;1.77;;
16579;SDS011;8402;51.466;6.806;2023-04-24T14:54:17;4.13;;;1.80;;
16579;SDS011;8402;51.466;6.806;2023-04-24T14:56:49;5.27;;;1.90;;
16579;SDS011;8402;51.466;6.806;2023-04-24T14:59:20;7.20;;;2.03;;
16579;SDS011;8402;51.466;6.806;2023-04-24T15:01:52;3.83;;;1.83;;
16579;SDS011;8402;51.466;6.806;2023-04-24T15:04:40;3.70;;;1.50;;
16579;SDS011;8402;51.466;6.806;2023-04-24T15:07:10;5.27;;;1.57;;
16579;SDS011;8402;51.466;6.806;2023-04-24T15:09:40;3.00;;;1.73;;
16579;SDS011;8402;51.466;6.806;2023-04-24T15:12:10;5.27;;;1.67;;
16579;SDS011;8402;51.466;6.806;2023-04-24T15:14:41;2.23;;;1.00;;
16579;SDS011;8402;51.466;6.806;2023-04-24T15:17:13;3.03;;;1.30;;
16579;SDS011;8402;51.466;6.806;2023-04-24T15:19:43;4.73;;;1.43;;
16579;SDS011;8402;51.466;6.806;2023-04-24T15:22:13;5.33;;;1.50;;